Lutsen, Minnesota
Current Conditions -  °F | °C
As of 11:14 PM on Friday 19 Dec 2014 (Local Time) from KCKC Reporting Station
Overcast Overcast  
Wind Chill: 21°   Ceiling: 400
Heat Index: 21°   Visibility: 7mi
Dew Point: 18°   Wind: 0mph
Humidity: 86%   Direction: NA
Pressure: 30.13"   Gusts: NA
Location:  47.65°N, 90.68°W
Report Text: KCKC 200514Z AUTO 00000KT 7SM OVC004 M06/M08 A3013 RMK AO2
Loading
Personal Weather Stations






























Interactive Weather Map New forecast layout! Learn more

10-Day Weather Forecast

Advertisements
Track Severe Weather on mobile